This is the latest recevied weather packets stored in our database for station/object CE2LOH-10. If no packets are shown the sender has not sent any weather packets the latest 1 day(s).
| Time | Temp. | Humidity | Pressure | Rain* | Wind** | Luminosity | Snow |
|---|---|---|---|---|---|---|---|
| 1777851512 | 20° C | 26% | 995.6 hPa | - | - | - | - |
| 1777850612 | 20.56° C | 26% | 995.4 hPa | - | - | - | - |
| 1777849712 | 21.11° C | 26% | 995.3 hPa | - | - | - | - |
| 1777848811 | 21.11° C | 27% | 995.3 hPa | - | - | - | - |
| 1777847911 | 21.67° C | 27% | 995.2 hPa | - | - | - | - |
| 1777847011 | 21.67° C | 27% | 995.1 hPa | - | - | - | - |
| 1777846111 | 22.22° C | 27% | 994.9 hPa | - | - | - | - |
| 1777845211 | 22.78° C | 29% | 994.8 hPa | - | - | - | - |
| 1777844311 | 22.78° C | 29% | 994.9 hPa | - | - | - | - |
| 1777843411 | 22.78° C | 29% | 994.6 hPa | - | - | - | - |
| 1777842511 | 23.33° C | 29% | 994.5 hPa | - | - | - | - |
| 1777841610 | 23.33° C | 27% | 994.5 hPa | - | - | - | - |
| 1777840710 | 23.33° C | 30% | 994.4 hPa | - | - | - | - |
| 1777839810 | 23.89° C | 30% | 994.1 hPa | - | - | - | - |
| 1777838910 | 23.89° C | 32% | 993.8 hPa | - | - | - | - |
| 1777838010 | 23.89° C | 32% | 993.7 hPa | - | - | - | - |
| 1777837110 | 23.89° C | 32% | 993.6 hPa | - | - | - | - |
| 1777836210 | 23.33° C | 34% | 993.8 hPa | - | - | - | - |
| 1777835310 | 23.33° C | 34% | 993.8 hPa | - | - | - | - |
| 1777834409 | 23.33° C | 35% | 993.9 hPa | - | - | - | - |
* Rain since midnight (hover to see other rain measurements)
** Current wind speed in m/s (hover to see current wind gust speed)